Nordic Stockholm — 2DKI2 — position and weather

sailwx.info

Track history (hours):
 
Tides and Currents Weather Stations Pressure Air Temp Water Temp Dewpoint Dewpoint Depression Visibility Wind Speed Wind Dir Waves Ship Positions

Nordic Stockholm

Last reported at 2015-Jan-17 07:33 UTC. Time now 2015-Feb-01 00:31 UTC.
Position N 20°11' E 110°10'.
Warning: this ship's position is 14 days out of date.

Length 180 m; draft 7.1 m.

Type: Cargo ship. MMSI: 235079725.

Date/timePositionNaut miles runAvg speedWind from/ knotsBaromVisibWave heightAir tempDewpointWater temp
2015-Jan-17 07:33N 20°11' E 110°10'1212.0
2015-Jan-17 06:33N 20°13' E 110°23'  
2015-Jan-13 08:33N 31°00' E 122°28'1111.2
2015-Jan-13 07:33N 31°03' E 122°15'10 9.9
2015-Jan-13 06:33N 31°04' E 122°04'1010.1
2015-Jan-13 05:33N 31°09' E 121°53'1211.8
2015-Jan-13 04:33N 31°18' E 121°44'1211.6
2015-Jan-13 03:33N 31°24' E 121°33'1111.1
2015-Jan-13 02:33N 31°31' E 121°23'1212.3
2015-Jan-13 01:33N 31°40' E 121°12'5 5.0
2015-Jan-13 00:33N 31°43' E 121°08'0 0.1
2015-Jan-12 23:31N 31°43' E 121°08'0 0.0
2015-Jan-12 22:31N 31°43' E 121°08'0 0.0
2015-Jan-12 21:22N 31°43' E 121°08'0 0.1
2015-Jan-12 20:25N 31°43' E 121°08'0 0.1
2015-Jan-12 19:20N 31°43' E 121°08'0 0.1
2015-Jan-12 18:31N 31°43' E 121°08'0 0.0
2015-Jan-12 17:32N 31°43' E 121°08'0 0.0
2015-Jan-12 16:31N 31°43' E 121°08'0 0.1
2015-Jan-12 15:31N 31°43' E 121°08'0 0.0
2015-Jan-12 14:08N 31°43' E 121°08'0 0.0
2015-Jan-12 13:31N 31°43' E 121°08'0 0.1
2015-Jan-12 12:31N 31°43' E 121°08'0 0.1
2015-Jan-12 11:32N 31°43' E 121°08'0 0.1
2015-Jan-12 10:19N 31°43' E 121°08'0 0.0
2015-Jan-12 08:31N 31°43' E 121°08'0 0.0
2015-Jan-12 07:31N 31°43' E 121°08'0 0.1
2015-Jan-12 06:31N 31°43' E 121°08'0 0.1
2015-Jan-12 05:25N 31°43' E 121°08'0 0.0
2015-Jan-12 04:25N 31°43' E 121°08'0 0.1
2015-Jan-12 03:31N 31°43' E 121°08'0 0.0
2015-Jan-12 02:25N 31°43' E 121°08'0 0.1
2015-Jan-12 01:31N 31°43' E 121°08'0 0.1
2015-Jan-12 00:31N 31°43' E 121°08'0 0.1
2015-Jan-11 23:31N 31°43' E 121°08'0 0.1
2015-Jan-11 21:32N 31°43' E 121°08'0 0.0
2015-Jan-11 20:31N 31°43' E 121°08'0 0.1
2015-Jan-11 19:28N 31°43' E 121°08'0 0.1
2015-Jan-11 18:28N 31°43' E 121°08'0 0.1
2015-Jan-11 17:31N 31°43' E 121°08'0 0.0
2015-Jan-11 16:22N 31°43' E 121°08'0 0.0
2015-Jan-11 15:31N 31°43' E 121°08'0 0.1
2015-Jan-11 14:30N 31°43' E 121°08'0 0.0
2015-Jan-11 13:31N 31°43' E 121°08'0 0.1
2015-Jan-11 12:33N 31°43' E 121°08'0 0.1
2015-Jan-11 11:33N 31°43' E 121°08'1 1.0
2015-Jan-11 10:33N 31°44' E 121°07'8 8.3
2015-Jan-11 09:33N 31°47' E 120°58'1 1.3
2015-Jan-11 08:25N 31°46' E 120°56'0 0.0
2015-Jan-11 07:22N 31°46' E 120°56'0 0.0
2015-Jan-11 06:31N 31°46' E 120°56'0 0.0
2015-Jan-11 05:26N 31°46' E 120°56'0 0.0
2015-Jan-11 04:28N 31°46' E 120°56'0 0.0
2015-Jan-11 03:28N 31°46' E 120°56'0 0.0
2015-Jan-11 02:32N 31°46' E 120°56'0 0.0
2015-Jan-11 01:31N 31°46' E 120°56'0 0.0
2015-Jan-11 00:28N 31°46' E 120°56'0 0.0
2015-Jan-10 23:28N 31°46' E 120°56'0 0.0
2015-Jan-10 22:31N 31°46' E 120°56'0 0.0
2015-Jan-10 21:31N 31°46' E 120°56'0 0.0
2015-Jan-10 20:31N 31°46' E 120°56'0 0.0
2015-Jan-10 19:31N 31°46' E 120°56'0 0.0
2015-Jan-10 18:13N 31°46' E 120°56'0 0.0
2015-Jan-10 17:28N 31°46' E 120°56'0 0.0
2015-Jan-10 16:29N 31°46' E 120°56'0 0.0
2015-Jan-10 15:31N 31°46' E 120°56'0 0.1
2015-Jan-10 14:31N 31°46' E 120°56'0 0.0
2015-Jan-10 13:28N 31°46' E 120°56'0 0.0
2015-Jan-10 12:29N 31°46' E 120°56'0 0.0
2015-Jan-10 11:28N 31°46' E 120°56'0 0.0
2015-Jan-10 10:31N 31°46' E 120°56'0 0.0
2015-Jan-10 09:31N 31°46' E 120°56'0 0.0
2015-Jan-10 08:31N 31°46' E 120°56'0 0.0
2015-Jan-10 07:31N 31°46' E 120°56'0 0.0
2015-Jan-10 06:29N 31°46' E 120°56'0 0.0
2015-Jan-10 05:28N 31°46' E 120°56'0 0.0
2015-Jan-10 04:31N 31°46' E 120°56'0 0.0
2015-Jan-10 03:29N 31°46' E 120°56'0 0.0
2015-Jan-10 02:31N 31°46' E 120°56'0 0.0
2015-Jan-10 01:31N 31°46' E 120°56'0 0.0
2015-Jan-10 00:31N 31°46' E 120°56'0 0.0
2015-Jan-09 23:31N 31°46' E 120°56'0 0.0
2015-Jan-09 22:31N 31°46' E 120°56'0 0.0
2015-Jan-09 21:31N 31°46' E 120°56'0 0.0
2015-Jan-09 20:28N 31°46' E 120°56'0 0.0
2015-Jan-09 19:31N 31°46' E 120°56'0 0.0
2015-Jan-09 18:31N 31°46' E 120°56'0 0.0
2015-Jan-09 17:31N 31°46' E 120°56'0 0.0
2015-Jan-09 16:31N 31°46' E 120°56'0 0.0
2015-Jan-09 15:31N 31°46' E 120°56'0 0.0
2015-Jan-09 14:25N 31°46' E 120°56'0 0.0
2015-Jan-09 13:31N 31°46' E 120°56'0 0.0
2015-Jan-09 12:31N 31°46' E 120°56'0 0.0
2015-Jan-09 11:25N 31°46' E 120°56'0 0.0
2015-Jan-09 10:28N 31°46' E 120°56'0 0.0
2015-Jan-09 09:31N 31°46' E 120°56'0 0.0
2015-Jan-09 08:13N 31°46' E 120°56'0 0.0
2015-Jan-09 07:28N 31°46' E 120°56'0 0.0
2015-Jan-09 06:28N 31°46' E 120°56'0 0.0
2015-Jan-09 05:31N 31°46' E 120°56'0 0.0
2015-Jan-09 04:31N 31°46' E 120°56'0 0.0
2015-Jan-09 03:25N 31°46' E 120°56'0 0.0
2015-Jan-09 02:31N 31°46' E 120°56'0 0.0
2015-Jan-09 01:31N 31°46' E 120°56'0 0.0
2015-Jan-08 22:25N 31°46' E 120°56'0 0.0
2015-Jan-08 21:31N 31°46' E 120°56'0 0.0
2015-Jan-08 20:28N 31°46' E 120°56'0 0.0
2015-Jan-08 19:28N 31°46' E 120°56'0 0.0
2015-Jan-08 18:31N 31°46' E 120°56'0 0.0
2015-Jan-08 17:31N 31°46' E 120°56'0 0.0
2015-Jan-08 16:25N 31°46' E 120°56'0 0.0
2015-Jan-08 15:31N 31°46' E 120°56'0 0.0
2015-Jan-08 14:31N 31°46' E 120°56'0 0.0
2015-Jan-08 13:22N 31°46' E 120°56'0 0.0
2015-Jan-08 12:25N 31°46' E 120°56'0 0.0
2015-Jan-08 11:31N 31°46' E 120°56'0 0.0
2015-Jan-08 10:31N 31°46' E 120°56'0 0.0
2015-Jan-08 09:31N 31°46' E 120°56'0 0.0
2015-Jan-08 08:25N 31°46' E 120°56'0 0.0
2015-Jan-08 07:25N 31°46' E 120°56'0 0.0
2015-Jan-08 06:31N 31°46' E 120°56'0 0.0
2015-Jan-08 05:25N 31°46' E 120°56'0 0.0
2015-Jan-08 04:28N 31°46' E 120°56'0 0.0
2015-Jan-08 03:49N 31°46' E 120°56'0 0.0
2015-Jan-07 20:28N 31°46' E 120°56'0 0.0
2015-Jan-07 19:31N 31°46' E 120°56'0 0.0
2015-Jan-07 18:31N 31°46' E 120°56'0 0.0
2015-Jan-07 17:29N 31°46' E 120°56'0 0.0
2015-Jan-07 16:28N 31°46' E 120°56'0 0.0
2015-Jan-07 15:22N 31°46' E 120°56'0 0.0
2015-Jan-07 14:25N 31°46' E 120°56'0 0.0
2015-Jan-07 13:31N 31°46' E 120°56'0 0.0
2015-Jan-07 12:31N 31°46' E 120°56'0 0.0
2015-Jan-07 11:28N 31°46' E 120°56'0 0.0
2015-Jan-07 10:28N 31°46' E 120°56'0 0.0
2015-Jan-07 09:25N 31°46' E 120°56'0 0.0
2015-Jan-07 08:22N 31°46' E 120°56'  
Track history (hours):
 
Tides and Currents Weather Stations Pressure Air Temp Water Temp Dewpoint Dewpoint Depression Visibility Wind Speed Wind Dir Waves Ship Positions

Nordic Stockholm

Last reported at 2015-Jan-17 07:33 UTC. Time now 2015-Feb-01 00:31 UTC.
Position N 20°11' E 110°10'.
Warning: this ship's position is 14 days out of date.

Length 180 m; draft 7.1 m.

Type: Cargo ship. MMSI: 235079725.

Date/timePositionNaut miles runAvg speedWind from/ knotsBaromVisibWave heightAir tempDewpointWater temp
2015-Jan-17 07:33N 20°11' E 110°10'1212.0
2015-Jan-17 06:33N 20°13' E 110°23'  
2015-Jan-13 08:33N 31°00' E 122°28'1111.2
2015-Jan-13 07:33N 31°03' E 122°15'10 9.9
2015-Jan-13 06:33N 31°04' E 122°04'1010.1
2015-Jan-13 05:33N 31°09' E 121°53'1211.8
2015-Jan-13 04:33N 31°18' E 121°44'1211.6
2015-Jan-13 03:33N 31°24' E 121°33'1111.1
2015-Jan-13 02:33N 31°31' E 121°23'1212.3
2015-Jan-13 01:33N 31°40' E 121°12'5 5.0
2015-Jan-13 00:33N 31°43' E 121°08'0 0.1
2015-Jan-12 23:31N 31°43' E 121°08'0 0.0
2015-Jan-12 22:31N 31°43' E 121°08'0 0.0
2015-Jan-12 21:22N 31°43' E 121°08'0 0.1
2015-Jan-12 20:25N 31°43' E 121°08'0 0.1
2015-Jan-12 19:20N 31°43' E 121°08'0 0.1
2015-Jan-12 18:31N 31°43' E 121°08'0 0.0
2015-Jan-12 17:32N 31°43' E 121°08'0 0.0
2015-Jan-12 16:31N 31°43' E 121°08'0 0.1
2015-Jan-12 15:31N 31°43' E 121°08'0 0.0
2015-Jan-12 14:08N 31°43' E 121°08'0 0.0
2015-Jan-12 13:31N 31°43' E 121°08'0 0.1
2015-Jan-12 12:31N 31°43' E 121°08'0 0.1
2015-Jan-12 11:32N 31°43' E 121°08'0 0.1
2015-Jan-12 10:19N 31°43' E 121°08'0 0.0
2015-Jan-12 08:31N 31°43' E 121°08'0 0.0
2015-Jan-12 07:31N 31°43' E 121°08'0 0.1
2015-Jan-12 06:31N 31°43' E 121°08'0 0.1
2015-Jan-12 05:25N 31°43' E 121°08'0 0.0
2015-Jan-12 04:25N 31°43' E 121°08'0 0.1
2015-Jan-12 03:31N 31°43' E 121°08'0 0.0
2015-Jan-12 02:25N 31°43' E 121°08'0 0.1
2015-Jan-12 01:31N 31°43' E 121°08'0 0.1
2015-Jan-12 00:31N 31°43' E 121°08'0 0.1
2015-Jan-11 23:31N 31°43' E 121°08'0 0.1
2015-Jan-11 21:32N 31°43' E 121°08'0 0.0
2015-Jan-11 20:31N 31°43' E 121°08'0 0.1
2015-Jan-11 19:28N 31°43' E 121°08'0 0.1
2015-Jan-11 18:28N 31°43' E 121°08'0 0.1
2015-Jan-11 17:31N 31°43' E 121°08'0 0.0
2015-Jan-11 16:22N 31°43' E 121°08'0 0.0
2015-Jan-11 15:31N 31°43' E 121°08'0 0.1
2015-Jan-11 14:30N 31°43' E 121°08'0 0.0
2015-Jan-11 13:31N 31°43' E 121°08'0 0.1
2015-Jan-11 12:33N 31°43' E 121°08'0 0.1
2015-Jan-11 11:33N 31°43' E 121°08'1 1.0
2015-Jan-11 10:33N 31°44' E 121°07'8 8.3
2015-Jan-11 09:33N 31°47' E 120°58'1 1.3
2015-Jan-11 08:25N 31°46' E 120°56'0 0.0
2015-Jan-11 07:22N 31°46' E 120°56'0 0.0
2015-Jan-11 06:31N 31°46' E 120°56'0 0.0
2015-Jan-11 05:26N 31°46' E 120°56'0 0.0
2015-Jan-11 04:28N 31°46' E 120°56'0 0.0
2015-Jan-11 03:28N 31°46' E 120°56'0 0.0
2015-Jan-11 02:32N 31°46' E 120°56'0 0.0
2015-Jan-11 01:31N 31°46' E 120°56'0 0.0
2015-Jan-11 00:28N 31°46' E 120°56'0 0.0
2015-Jan-10 23:28N 31°46' E 120°56'0 0.0
2015-Jan-10 22:31N 31°46' E 120°56'0 0.0
2015-Jan-10 21:31N 31°46' E 120°56'0 0.0
2015-Jan-10 20:31N 31°46' E 120°56'0 0.0
2015-Jan-10 19:31N 31°46' E 120°56'0 0.0
2015-Jan-10 18:13N 31°46' E 120°56'0 0.0
2015-Jan-10 17:28N 31°46' E 120°56'0 0.0
2015-Jan-10 16:29N 31°46' E 120°56'0 0.0
2015-Jan-10 15:31N 31°46' E 120°56'0 0.1
2015-Jan-10 14:31N 31°46' E 120°56'0 0.0
2015-Jan-10 13:28N 31°46' E 120°56'0 0.0
2015-Jan-10 12:29N 31°46' E 120°56'0 0.0
2015-Jan-10 11:28N 31°46' E 120°56'0 0.0
2015-Jan-10 10:31N 31°46' E 120°56'0 0.0
2015-Jan-10 09:31N 31°46' E 120°56'0 0.0
2015-Jan-10 08:31N 31°46' E 120°56'0 0.0
2015-Jan-10 07:31N 31°46' E 120°56'0 0.0
2015-Jan-10 06:29N 31°46' E 120°56'0 0.0
2015-Jan-10 05:28N 31°46' E 120°56'0 0.0
2015-Jan-10 04:31N 31°46' E 120°56'0 0.0
2015-Jan-10 03:29N 31°46' E 120°56'0 0.0
2015-Jan-10 02:31N 31°46' E 120°56'0 0.0
2015-Jan-10 01:31N 31°46' E 120°56'0 0.0
2015-Jan-10 00:31N 31°46' E 120°56'0 0.0
2015-Jan-09 23:31N 31°46' E 120°56'0 0.0
2015-Jan-09 22:31N 31°46' E 120°56'0 0.0
2015-Jan-09 21:31N 31°46' E 120°56'0 0.0
2015-Jan-09 20:28N 31°46' E 120°56'0 0.0
2015-Jan-09 19:31N 31°46' E 120°56'0 0.0
2015-Jan-09 18:31N 31°46' E 120°56'0 0.0
2015-Jan-09 17:31N 31°46' E 120°56'0 0.0
2015-Jan-09 16:31N 31°46' E 120°56'0 0.0
2015-Jan-09 15:31N 31°46' E 120°56'0 0.0
2015-Jan-09 14:25N 31°46' E 120°56'0 0.0
2015-Jan-09 13:31N 31°46' E 120°56'0 0.0
2015-Jan-09 12:31N 31°46' E 120°56'0 0.0
2015-Jan-09 11:25N 31°46' E 120°56'0 0.0
2015-Jan-09 10:28N 31°46' E 120°56'0 0.0
2015-Jan-09 09:31N 31°46' E 120°56'0 0.0
2015-Jan-09 08:13N 31°46' E 120°56'0 0.0
2015-Jan-09 07:28N 31°46' E 120°56'0 0.0
2015-Jan-09 06:28N 31°46' E 120°56'0 0.0
2015-Jan-09 05:31N 31°46' E 120°56'0 0.0
2015-Jan-09 04:31N 31°46' E 120°56'0 0.0
2015-Jan-09 03:25N 31°46' E 120°56'0 0.0
2015-Jan-09 02:31N 31°46' E 120°56'0 0.0
2015-Jan-09 01:31N 31°46' E 120°56'0 0.0
2015-Jan-08 22:25N 31°46' E 120°56'0 0.0
2015-Jan-08 21:31N 31°46' E 120°56'0 0.0
2015-Jan-08 20:28N 31°46' E 120°56'0 0.0
2015-Jan-08 19:28N 31°46' E 120°56'0 0.0
2015-Jan-08 18:31N 31°46' E 120°56'0 0.0
2015-Jan-08 17:31N 31°46' E 120°56'0 0.0
2015-Jan-08 16:25N 31°46' E 120°56'0 0.0
2015-Jan-08 15:31N 31°46' E 120°56'0 0.0
2015-Jan-08 14:31N 31°46' E 120°56'0 0.0
2015-Jan-08 13:22N 31°46' E 120°56'0 0.0
2015-Jan-08 12:25N 31°46' E 120°56'0 0.0
2015-Jan-08 11:31N 31°46' E 120°56'0 0.0
2015-Jan-08 10:31N 31°46' E 120°56'0 0.0
2015-Jan-08 09:31N 31°46' E 120°56'0 0.0
2015-Jan-08 08:25N 31°46' E 120°56'0 0.0
2015-Jan-08 07:25N 31°46' E 120°56'0 0.0
2015-Jan-08 06:31N 31°46' E 120°56'0 0.0
2015-Jan-08 05:25N 31°46' E 120°56'0 0.0
2015-Jan-08 04:28N 31°46' E 120°56'0 0.0
2015-Jan-08 03:49N 31°46' E 120°56'0 0.0
2015-Jan-07 20:28N 31°46' E 120°56'0 0.0
2015-Jan-07 19:31N 31°46' E 120°56'0 0.0
2015-Jan-07 18:31N 31°46' E 120°56'0 0.0
2015-Jan-07 17:29N 31°46' E 120°56'0 0.0
2015-Jan-07 16:28N 31°46' E 120°56'0 0.0
2015-Jan-07 15:22N 31°46' E 120°56'0 0.0
2015-Jan-07 14:25N 31°46' E 120°56'0 0.0
2015-Jan-07 13:31N 31°46' E 120°56'0 0.0
2015-Jan-07 12:31N 31°46' E 120°56'0 0.0
2015-Jan-07 11:28N 31°46' E 120°56'0 0.0
2015-Jan-07 10:28N 31°46' E 120°56'0 0.0
2015-Jan-07 09:25N 31°46' E 120°56'0 0.0
2015-Jan-07 08:22N 31°46' E 120°56'  

Dump ship's entire track history